Biggers, Arkansas
Current Conditions -  °F | °C
As of 6:55 AM on Friday 31 Oct 2014 (Local Time) from K4M9 Reporting Station
Clear Clear  
Wind Chill: 43°   Ceiling: Unl
Heat Index: 48°   Visibility: 10mi
Dew Point: 45°   Wind: 12mph
Humidity: 87%   Direction: 340°NNW
Pressure: 30.11"   Gusts: NA
Location:  36.33°N, 90.81°W
Report Text: K4M9 311155Z AUTO 34010KT 10SM CLR 09/07 A3011 RMK AO2
Loading
Personal Weather Stations






























Interactive Weather Map
Tropical Storm Tracking
New forecast layout! Learn more

10-Day Weather Forecast

Advertisements
Track Severe Weather on mobile